Time;durP1;ratioP1;P1;durP2;ratioP2;P2;SDS_P1;SDS_P2;PMS_P1;PMS_P2;Temp;Humidity;BMP_temperature;BMP_pressure;BME280_temperature;BME280_humidity;BME280_pressure;Samples;Min_cycle;Max_cycle;Signal;HPM_P1;HPM_P2
2021/10/15 00:01:57;;;;;;;8.88;7.35;;;11.50;99.90;;;;;;4985640;28;20216;-76
2021/10/15 00:04:24;;;;;;;9.23;6.40;;;11.50;99.90;;;;;;4985621;28;20192;-76
2021/10/15 00:06:50;;;;;;;9.88;7.18;;;11.60;99.90;;;;;;4985511;28;20208;-76
2021/10/15 00:09:16;;;;;;;8.85;6.53;;;11.50;99.90;;;;;;4985979;28;20766;-76
2021/10/15 00:11:43;;;;;;;10.15;6.43;;;11.50;99.90;;;;;;4984174;28;20188;-77
2021/10/15 00:14:09;;;;;;;7.32;6.55;;;11.50;99.90;;;;;;4985843;28;20200;-76
2021/10/15 00:16:34;;;;;;;7.63;6.15;;;11.50;99.90;;;;;;4985221;28;20196;-76
2021/10/15 00:19:00;;;;;;;7.38;6.05;;;11.50;99.90;;;;;;4986008;28;20207;-76
2021/10/15 00:21:25;;;;;;;10.38;6.68;;;11.50;99.90;;;;;;4985244;28;20219;-76
2021/10/15 00:23:51;;;;;;;8.23;6.47;;;11.50;99.90;;;;;;4984844;28;20173;-76
2021/10/15 00:26:16;;;;;;;7.05;6.28;;;11.50;99.90;;;;;;4985058;28;20248;-76
2021/10/15 00:28:42;;;;;;;7.90;6.85;;;11.50;99.90;;;;;;4985841;28;20263;-76
2021/10/15 00:31:07;;;;;;;8.63;6.13;;;11.60;99.90;;;;;;4983780;28;20187;-77
2021/10/15 00:33:33;;;;;;;9.80;6.57;;;11.60;99.90;;;;;;4985626;28;20355;-76
2021/10/15 00:35:59;;;;;;;8.10;6.35;;;11.70;99.90;;;;;;4984888;28;20290;-76
2021/10/15 00:38:25;;;;;;;9.02;6.75;;;11.70;99.90;;;;;;4985194;28;20294;-76
2021/10/15 00:40:51;;;;;;;7.78;6.50;;;11.70;99.90;;;;;;4984728;28;20271;-76
2021/10/15 00:43:16;;;;;;;8.80;6.07;;;11.70;99.90;;;;;;4985164;28;20246;-76
2021/10/15 00:45:43;;;;;;;7.47;6.30;;;11.60;99.90;;;;;;4985114;28;20240;-76
2021/10/15 00:48:09;;;;;;;8.02;7.03;;;11.60;99.90;;;;;;4985473;28;20607;-76
2021/10/15 00:50:35;;;;;;;6.93;6.13;;;11.70;99.90;;;;;;4984943;28;20262;-76
2021/10/15 00:53:02;;;;;;;7.25;6.30;;;11.50;99.90;;;;;;4985066;28;20192;-76
2021/10/15 00:55:29;;;;;;;10.35;5.80;;;11.50;99.90;;;;;;4984488;28;20215;-76
2021/10/15 00:57:54;;;;;;;5.93;5.35;;;11.60;99.90;;;;;;4985489;28;20188;-76
2021/10/15 01:00:20;;;;;;;6.07;5.35;;;11.60;99.90;;;;;;4984924;28;20257;-76
2021/10/15 01:02:45;;;;;;;6.93;4.93;;;11.60;99.90;;;;;;4985020;28;20185;-77
2021/10/15 01:05:11;;;;;;;5.47;4.97;;;11.50;99.90;;;;;;4984251;28;20678;-77
2021/10/15 01:07:37;;;;;;;5.90;5.30;;;11.50;99.90;;;;;;4985162;28;20184;-77
2021/10/15 01:10:03;;;;;;;6.65;5.15;;;11.50;99.90;;;;;;4985174;28;20192;-77
2021/10/15 01:12:30;;;;;;;6.30;5.50;;;11.50;99.90;;;;;;4983481;28;20199;-77
2021/10/15 01:14:56;;;;;;;6.22;5.40;;;11.40;99.90;;;;;;4984861;28;20211;-76
2021/10/15 01:17:21;;;;;;;8.18;6.20;;;11.40;99.90;;;;;;4985116;28;20184;-76
2021/10/15 01:19:54;;;;;;;7.10;5.38;;;11.40;99.90;;;;;;4983612;28;20177;-77
2021/10/15 01:22:20;;;;;;;6.72;5.82;;;11.40;99.90;;;;;;4985091;28;20200;-76
2021/10/15 01:24:45;;;;;;;7.15;6.00;;;11.40;99.90;;;;;;4984972;28;20199;-76
2021/10/15 01:27:11;;;;;;;6.35;5.53;;;11.40;99.90;;;;;;4984902;28;20195;-76
2021/10/15 01:29:38;;;;;;;6.13;5.25;;;11.40;99.90;;;;;;4987317;28;20672;-76
2021/10/15 01:32:06;;;;;;;6.15;4.93;;;11.50;99.90;;;;;;4988542;28;20188;-74
2021/10/15 01:34:32;;;;;;;5.82;5.20;;;11.50;99.90;;;;;;4987872;28;20192;-76
2021/10/15 01:36:57;;;;;;;6.25;4.75;;;11.50;99.90;;;;;;4988751;28;20200;-76
2021/10/15 01:39:23;;;;;;;6.50;5.35;;;11.50;99.90;;;;;;4988272;28;20179;-76
2021/10/15 01:41:49;;;;;;;7.30;5.85;;;11.50;99.90;;;;;;4988064;28;20180;-77
2021/10/15 01:44:14;;;;;;;6.25;5.35;;;11.60;99.90;;;;;;4988614;28;20207;-76
2021/10/15 01:46:40;;;;;;;7.85;5.30;;;11.50;99.90;;;;;;4988295;28;20204;-76
2021/10/15 01:49:06;;;;;;;7.10;5.85;;;11.60;99.90;;;;;;4988588;28;20255;-77
2021/10/15 01:51:31;;;;;;;8.30;6.03;;;11.60;99.90;;;;;;4987801;28;20560;-76
2021/10/15 01:53:57;;;;;;;8.93;6.47;;;11.60;99.90;;;;;;4986890;28;20212;-76
2021/10/15 01:56:22;;;;;;;6.72;5.63;;;11.50;99.90;;;;;;4987862;28;20840;-76
2021/10/15 01:58:48;;;;;;;8.35;6.13;;;11.60;99.90;;;;;;4987926;28;20240;-76
2021/10/15 02:01:13;;;;;;;9.63;5.82;;;11.70;99.90;;;;;;4987742;28;20203;-76
2021/10/15 02:03:39;;;;;;;7.45;5.82;;;11.70;99.90;;;;;;4987972;28;20184;-76
2021/10/15 02:06:05;;;;;;;8.32;6.10;;;11.70;99.90;;;;;;4987864;28;20200;-76
2021/10/15 02:08:30;;;;;;;5.90;5.00;;;11.70;99.90;;;;;;4988163;28;20238;-76
2021/10/15 02:10:56;;;;;;;7.57;5.90;;;11.70;99.90;;;;;;4987583;28;20242;-76
2021/10/15 02:13:21;;;;;;;8.07;5.40;;;11.70;99.90;;;;;;4987987;28;20184;-76
2021/10/15 02:15:47;;;;;;;8.18;5.45;;;11.60;99.90;;;;;;4987483;28;20278;-76
2021/10/15 02:18:12;;;;;;;9.88;5.60;;;11.70;99.90;;;;;;4988175;28;20184;-75
2021/10/15 02:20:38;;;;;;;5.50;4.85;;;11.70;99.90;;;;;;4987478;28;20191;-77
2021/10/15 02:23:04;;;;;;;6.40;4.95;;;11.70;99.90;;;;;;4987872;28;20275;-76
2021/10/15 02:25:30;;;;;;;7.95;5.18;;;11.70;99.90;;;;;;4987152;28;20628;-76
2021/10/15 02:27:56;;;;;;;8.07;4.97;;;11.70;99.90;;;;;;4987668;28;20188;-77
2021/10/15 02:30:22;;;;;;;6.97;5.00;;;11.80;99.90;;;;;;4986917;28;20210;-75
2021/10/15 02:32:48;;;;;;;6.00;5.07;;;11.80;99.90;;;;;;4985958;28;20191;-76
2021/10/15 02:35:16;;;;;;;7.75;5.55;;;11.90;99.90;;;;;;4986448;28;20239;-76
2021/10/15 02:37:42;;;;;;;6.43;5.60;;;11.90;99.90;;;;;;4986004;28;20577;-76
2021/10/15 02:40:09;;;;;;;6.32;5.22;;;11.90;99.90;;;;;;4985783;28;20199;-75
2021/10/15 02:42:35;;;;;;;7.97;5.55;;;11.90;99.90;;;;;;4985837;28;20219;-75
2021/10/15 02:45:02;;;;;;;6.55;5.10;;;11.90;99.90;;;;;;4984519;28;20248;-76
2021/10/15 02:47:28;;;;;;;6.72;4.88;;;11.90;99.90;;;;;;4985581;28;20709;-74
2021/10/15 02:49:54;;;;;;;7.07;4.85;;;11.90;99.90;;;;;;4985700;28;20212;-76
2021/10/15 02:52:19;;;;;;;8.02;5.38;;;11.80;99.90;;;;;;4985472;28;20314;-75
2021/10/15 02:54:45;;;;;;;6.72;5.00;;;11.80;99.90;;;;;;4985614;28;20258;-75
2021/10/15 02:57:10;;;;;;;7.07;5.50;;;11.80;99.90;;;;;;4985645;28;20543;-76
2021/10/15 02:59:36;;;;;;;8.27;5.47;;;11.80;99.90;;;;;;4985697;28;20291;-76
2021/10/15 03:02:02;;;;;;;6.25;5.35;;;11.80;99.90;;;;;;4984009;28;20181;-75
2021/10/15 03:04:27;;;;;;;7.13;5.43;;;11.80;99.90;;;;;;4986062;28;20190;-76
2021/10/15 03:06:53;;;;;;;6.72;4.95;;;11.80;99.90;;;;;;4986441;28;20204;-76
2021/10/15 03:09:18;;;;;;;7.22;5.05;;;11.80;99.90;;;;;;4987187;28;20268;-76
2021/10/15 03:11:44;;;;;;;6.90;5.53;;;11.90;99.90;;;;;;4986097;28;20184;-76
2021/10/15 03:14:10;;;;;;;7.32;5.10;;;11.80;99.90;;;;;;4986927;28;20211;-76
2021/10/15 03:16:35;;;;;;;7.90;5.50;;;11.90;99.90;;;;;;4986026;28;20225;-76
2021/10/15 03:19:01;;;;;;;6.57;5.15;;;11.80;99.90;;;;;;4986862;28;20181;-76
2021/10/15 03:21:26;;;;;;;6.28;5.00;;;11.90;99.90;;;;;;4985937;28;20194;-76
2021/10/15 03:23:52;;;;;;;6.43;5.40;;;11.90;99.90;;;;;;4986566;28;20183;-76
2021/10/15 03:26:18;;;;;;;6.13;5.13;;;11.90;99.90;;;;;;4985683;28;20288;-76
2021/10/15 03:28:44;;;;;;;8.98;5.18;;;11.90;99.90;;;;;;4986947;28;20203;-76
2021/10/15 03:31:09;;;;;;;5.75;4.43;;;11.80;99.90;;;;;;4984867;28;20565;-76
2021/10/15 03:33:35;;;;;;;5.90;4.60;;;11.80;99.90;;;;;;4986452;28;20228;-76
2021/10/15 03:36:01;;;;;;;7.72;5.40;;;11.90;99.90;;;;;;4986134;28;20575;-76
2021/10/15 03:38:26;;;;;;;7.07;4.60;;;11.90;99.90;;;;;;4986192;28;20182;-76
2021/10/15 03:40:52;;;;;;;5.38;4.07;;;11.90;99.90;;;;;;4985840;28;20184;-76
2021/10/15 03:43:17;;;;;;;6.38;4.57;;;11.90;99.90;;;;;;4985949;28;20191;-77
2021/10/15 03:45:43;;;;;;;6.53;4.60;;;11.80;99.90;;;;;;4985725;28;20212;-76
2021/10/15 03:48:09;;;;;;;6.13;4.60;;;11.90;99.90;;;;;;4986001;28;20183;-76
2021/10/15 03:50:34;;;;;;;5.40;4.70;;;11.90;99.90;;;;;;4984203;28;20191;-76
2021/10/15 03:53:00;;;;;;;7.68;5.15;;;11.90;99.90;;;;;;4985104;28;20196;-76
2021/10/15 03:55:26;;;;;;;5.28;4.25;;;12.00;99.90;;;;;;4985655;28;20221;-76
2021/10/15 03:57:52;;;;;;;6.50;4.40;;;12.00;99.90;;;;;;5000384;28;20183;-76
2021/10/15 04:00:18;;;;;;;6.40;4.40;;;12.00;99.90;;;;;;4985504;28;20180;-76
2021/10/15 04:02:45;;;;;;;5.88;4.35;;;12.00;99.90;;;;;;4984265;28;20191;-75
2021/10/15 04:05:12;;;;;;;6.47;4.25;;;11.90;99.90;;;;;;4985514;28;20204;-76
2021/10/15 04:07:38;;;;;;;5.95;4.30;;;11.90;99.90;;;;;;4985251;28;20195;-76
2021/10/15 04:10:06;;;;;;;6.13;4.20;;;11.90;99.90;;;;;;4985598;28;20179;-76
2021/10/15 04:12:32;;;;;;;4.57;4.03;;;11.90;99.90;;;;;;4985192;28;20543;-76
2021/10/15 04:14:57;;;;;;;5.85;3.70;;;11.80;99.90;;;;;;4986017;28;20207;-76
2021/10/15 04:17:23;;;;;;;5.25;4.35;;;11.80;99.90;;;;;;4985015;28;20188;-76
2021/10/15 04:19:49;;;;;;;4.20;3.80;;;11.80;99.90;;;;;;4985158;28;20176;-76
2021/10/15 04:22:15;;;;;;;5.55;4.32;;;11.90;99.90;;;;;;4985051;28;20634;-76
2021/10/15 04:24:40;;;;;;;4.35;3.88;;;11.80;99.90;;;;;;4985181;28;20188;-76
2021/10/15 04:27:07;;;;;;;4.93;3.95;;;11.90;99.90;;;;;;4985446;28;20193;-76
2021/10/15 04:29:33;;;;;;;6.15;4.22;;;11.90;99.90;;;;;;4985092;28;20247;-76
2021/10/15 04:31:59;;;;;;;4.68;3.53;;;11.80;99.90;;;;;;4984735;28;20184;-76
2021/10/15 04:34:24;;;;;;;5.47;3.55;;;11.80;99.90;;;;;;4984924;28;20994;-76
2021/10/15 04:36:50;;;;;;;4.72;3.45;;;11.80;99.90;;;;;;4984812;28;20207;-76
2021/10/15 04:39:16;;;;;;;5.40;3.50;;;11.80;99.90;;;;;;4984963;28;20530;-75
2021/10/15 04:41:41;;;;;;;4.47;3.38;;;11.80;99.90;;;;;;4982974;28;20239;-76
2021/10/15 04:44:07;;;;;;;4.32;3.70;;;11.80;99.90;;;;;;4983446;28;20291;-76
2021/10/15 04:46:33;;;;;;;3.88;3.28;;;11.80;99.90;;;;;;4982935;28;20207;-75
2021/10/15 04:48:59;;;;;;;4.10;3.28;;;11.80;99.90;;;;;;4983696;28;20192;-74
2021/10/15 04:51:25;;;;;;;4.20;3.40;;;11.80;99.90;;;;;;4982885;28;20191;-76
2021/10/15 04:53:50;;;;;;;5.50;3.35;;;11.90;99.90;;;;;;4983560;28;20179;-75
2021/10/15 04:56:16;;;;;;;5.40;3.30;;;11.90;99.90;;;;;;4982844;28;20195;-76
2021/10/15 04:58:42;;;;;;;6.25;3.20;;;11.90;99.90;;;;;;4983455;28;20255;-76
2021/10/15 05:01:07;;;;;;;3.60;3.05;;;11.90;99.90;;;;;;4982740;28;20184;-76
2021/10/15 05:03:34;;;;;;;4.60;3.40;;;11.90;99.90;;;;;;4985939;28;20223;-76
2021/10/15 05:05:59;;;;;;;4.22;3.47;;;11.90;99.90;;;;;;4987431;28;20200;-76
2021/10/15 05:08:31;;;;;;;6.40;3.50;;;11.90;99.90;;;;;;4987550;28;20187;-77
2021/10/15 05:10:57;;;;;;;6.88;3.33;;;11.90;99.90;;;;;;4986855;28;20569;-76
2021/10/15 05:13:22;;;;;;;8.32;3.45;;;11.90;99.90;;;;;;4987117;28;20257;-76
2021/10/15 05:15:48;;;;;;;3.25;2.75;;;11.90;99.90;;;;;;4985240;28;20212;-76
2021/10/15 05:18:14;;;;;;;4.22;3.10;;;11.90;99.90;;;;;;4987508;28;20195;-76
2021/10/15 05:20:41;;;;;;;5.18;2.90;;;11.80;99.90;;;;;;4986644;28;20565;-76
2021/10/15 05:23:08;;;;;;;3.58;2.75;;;11.90;99.90;;;;;;4986657;28;20311;-76
2021/10/15 05:25:34;;;;;;;3.40;3.08;;;11.80;99.90;;;;;;4986668;28;20192;-76
2021/10/15 05:28:00;;;;;;;3.78;3.13;;;11.80;99.90;;;;;;4986581;28;20219;-76
2021/10/15 05:30:26;;;;;;;2.97;2.67;;;11.80;99.90;;;;;;4986829;28;20212;-75
2021/10/15 05:32:52;;;;;;;4.30;3.05;;;11.80;99.90;;;;;;4986561;28;20184;-76
2021/10/15 05:35:18;;;;;;;4.72;3.13;;;11.80;99.90;;;;;;4986332;28;20219;-76
2021/10/15 05:37:44;;;;;;;3.50;2.92;;;11.80;99.90;;;;;;4986494;28;20189;-76
2021/10/15 05:40:10;;;;;;;3.08;2.30;;;11.80;99.90;;;;;;4986412;28;20176;-76
2021/10/15 05:42:36;;;;;;;2.85;2.50;;;11.80;99.90;;;;;;4986238;28;20239;-76
2021/10/15 05:45:02;;;;;;;4.72;2.60;;;11.80;99.90;;;;;;4984992;28;20220;-76
2021/10/15 05:47:28;;;;;;;3.03;2.72;;;11.80;99.90;;;;;;4986288;28;20271;-76
2021/10/15 05:49:56;;;;;;;3.28;2.40;;;11.80;99.90;;;;;;4986354;28;20279;-76
2021/10/15 05:52:36;;;;;;;4.45;2.20;;;11.70;99.90;;;;;;4984704;28;20191;-76
2021/10/15 06:00:23;;;;;;;2.65;2.45;;;11.70;99.90;;;;;;4985253;28;20262;-76
2021/10/15 06:02:49;;;;;;;3.65;2.08;;;11.60;99.90;;;;;;4984977;28;20354;-76
2021/10/15 06:06:05;;;;;;;3.75;2.30;;;11.70;99.90;;;;;;4985747;28;20219;-76
2021/10/15 06:16:23;;;;;;;4.05;2.50;;;11.60;99.90;;;;;;4985638;28;20257;-76
2021/10/15 06:18:53;;;;;;;4.20;2.20;;;11.60;99.90;;;;;;4986070;28;20605;-76
2021/10/15 06:21:20;;;;;;;6.82;2.53;;;11.60;99.90;;;;;;4983959;28;20184;-75
2021/10/15 06:23:45;;;;;;;3.05;2.20;;;11.60;99.90;;;;;;4985606;28;20180;-76
2021/10/15 06:26:11;;;;;;;2.10;1.90;;;11.60;99.90;;;;;;4985556;28;20306;-76
2021/10/15 06:28:36;;;;;;;2.67;2.10;;;11.60;99.90;;;;;;4986081;28;20263;-76
2021/10/15 06:31:02;;;;;;;1.90;1.80;;;11.60;99.90;;;;;;4985621;28;20275;-76
2021/10/15 06:33:27;;;;;;;3.83;2.20;;;11.60;99.90;;;;;;4986201;28;20214;-75
2021/10/15 06:35:53;;;;;;;2.63;2.05;;;11.60;99.90;;;;;;4984675;28;20216;-75
2021/10/15 06:38:19;;;;;;;2.88;2.13;;;11.60;99.90;;;;;;4984559;28;20271;-76
2021/10/15 06:40:46;;;;;;;6.50;2.33;;;11.60;99.90;;;;;;4983791;28;20196;-75
2021/10/15 06:43:11;;;;;;;3.03;2.03;;;11.70;99.90;;;;;;4984764;28;20180;-76
2021/10/15 06:45:37;;;;;;;3.28;2.00;;;11.70;99.90;;;;;;4984449;28;20211;-76
2021/10/15 06:48:03;;;;;;;1.98;1.73;;;11.70;99.90;;;;;;4985228;28;20184;-76
2021/10/15 06:50:29;;;;;;;2.15;1.95;;;11.70;99.90;;;;;;4983648;28;20177;-73
2021/10/15 06:52:55;;;;;;;3.72;1.70;;;11.80;99.90;;;;;;4985090;28;20546;-76
2021/10/15 06:55:22;;;;;;;2.10;1.50;;;11.90;99.90;;;;;;4985245;28;20708;-75
2021/10/15 06:57:49;;;;;;;2.10;1.90;;;11.80;99.90;;;;;;4986366;28;20210;-76
2021/10/15 07:00:15;;;;;;;2.63;1.73;;;11.80;99.90;;;;;;4986195;28;20279;-75
2021/10/15 07:02:42;;;;;;;2.30;1.67;;;11.80;99.90;;;;;;4983137;28;20206;-76
2021/10/15 07:05:09;;;;;;;3.28;1.77;;;11.90;99.90;;;;;;4984166;28;20250;-76
2021/10/15 07:07:34;;;;;;;3.35;1.60;;;11.90;99.90;;;;;;4984256;28;20196;-76
2021/10/15 07:10:02;;;;;;;4.47;1.83;;;11.90;99.90;;;;;;4984020;28;20191;-76
2021/10/15 07:12:28;;;;;;;2.28;1.65;;;12.00;99.90;;;;;;4983769;28;20569;-76
2021/10/15 07:14:54;;;;;;;2.53;1.85;;;12.00;99.90;;;;;;4984132;28;20216;-76
2021/10/15 07:17:21;;;;;;;1.95;1.75;;;12.10;99.90;;;;;;4984365;28;20188;-76
2021/10/15 07:19:47;;;;;;;2.78;1.83;;;12.10;99.90;;;;;;4984511;28;20176;-77
2021/10/15 07:22:13;;;;;;;3.42;1.90;;;12.10;99.90;;;;;;4984559;28;20184;-74
2021/10/15 07:24:38;;;;;;;3.30;2.13;;;12.10;99.90;;;;;;4984497;28;20188;-73
2021/10/15 07:27:04;;;;;;;2.28;2.08;;;12.10;99.90;;;;;;4985879;28;20216;-71
2021/10/15 07:29:30;;;;;;;3.25;2.00;;;12.10;99.90;;;;;;4984404;28;20190;-76
2021/10/15 07:31:55;;;;;;;3.92;2.70;;;12.10;99.90;;;;;;4983834;28;20271;-76
2021/10/15 07:34:21;;;;;;;2.22;2.00;;;12.20;99.90;;;;;;4983777;28;20268;-76
2021/10/15 07:36:46;;;;;;;2.95;2.00;;;12.20;99.90;;;;;;4984683;28;20659;-76
2021/10/15 07:39:12;;;;;;;3.92;2.75;;;12.10;99.90;;;;;;4981948;28;20184;-74
2021/10/15 07:41:43;;;;;;;3.38;2.70;;;12.20;99.90;;;;;;4983340;28;20182;-78
2021/10/15 07:44:10;;;;;;;4.07;2.20;;;12.20;99.90;;;;;;4984330;28;20203;-78
2021/10/15 07:46:35;;;;;;;4.90;2.35;;;12.30;99.90;;;;;;4985195;28;20206;-79
2021/10/15 07:49:01;;;;;;;3.08;2.20;;;12.30;99.90;;;;;;4982714;28;20184;-76
2021/10/15 07:51:26;;;;;;;3.72;1.98;;;12.50;99.90;;;;;;4984760;28;20686;-73
2021/10/15 07:53:52;;;;;;;4.30;2.45;;;12.40;99.90;;;;;;5000093;28;20191;-76
2021/10/15 07:56:18;;;;;;;3.45;2.10;;;12.50;99.90;;;;;;4985940;28;20216;-77
2021/10/15 07:58:43;;;;;;;3.33;2.35;;;12.60;99.90;;;;;;4985217;28;20180;-76
2021/10/15 08:01:09;;;;;;;2.85;2.55;;;12.70;99.90;;;;;;4985983;28;20217;-75
2021/10/15 08:03:34;;;;;;;3.92;2.13;;;12.80;99.90;;;;;;4982676;28;20659;-73
2021/10/15 08:06:00;;;;;;;2.63;1.80;;;12.70;99.90;;;;;;4984642;28;20235;-74
2021/10/15 08:08:25;;;;;;;3.17;2.17;;;12.80;99.90;;;;;;4987020;28;20436;-74
2021/10/15 08:10:51;;;;;;;3.67;2.42;;;12.80;99.90;;;;;;4983864;28;20556;-77
2021/10/15 08:13:16;;;;;;;3.95;2.22;;;13.00;99.90;;;;;;4982729;28;20263;-76
2021/10/15 08:15:42;;;;;;;5.35;2.20;;;13.10;99.90;;;;;;4983568;28;20211;-75
2021/10/15 08:18:07;;;;;;;2.65;2.05;;;13.30;99.90;;;;;;4983173;28;20180;-76
2021/10/15 08:20:33;;;;;;;3.00;2.33;;;13.40;99.90;;;;;;4983867;28;20191;-76
2021/10/15 08:22:59;;;;;;;4.05;2.20;;;13.30;99.90;;;;;;4983219;28;20180;-76
2021/10/15 08:25:26;;;;;;;3.85;2.40;;;13.50;99.90;;;;;;4983355;28;20219;-76
2021/10/15 08:27:51;;;;;;;2.60;2.30;;;13.60;99.90;;;;;;4983405;28;20196;-77
2021/10/15 08:30:17;;;;;;;3.22;2.35;;;13.50;99.90;;;;;;4982812;28;20572;-73
2021/10/15 08:32:43;;;;;;;3.55;2.63;;;13.40;99.90;;;;;;4983088;28;20550;-76
2021/10/15 08:35:11;;;;;;;2.97;2.38;;;13.30;99.90;;;;;;4983165;28;20643;-76
2021/10/15 08:37:38;;;;;;;3.53;2.13;;;13.20;99.90;;;;;;4982987;28;20188;-76
2021/10/15 08:40:05;;;;;;;3.83;2.50;;;13.30;99.90;;;;;;4981688;28;20184;-77
2021/10/15 08:42:31;;;;;;;2.55;2.20;;;13.30;99.90;;;;;;4980778;28;20176;-76
2021/10/15 08:44:56;;;;;;;2.15;1.95;;;13.40;99.90;;;;;;4982547;28;20261;-75
2021/10/15 08:47:22;;;;;;;2.50;2.15;;;13.30;99.90;;;;;;4983547;28;20188;-74
2021/10/15 08:49:48;;;;;;;4.30;2.70;;;13.30;99.90;;;;;;4983094;28;20306;-73
2021/10/15 08:52:14;;;;;;;6.82;2.35;;;13.30;99.90;;;;;;4981927;28;20518;-76
2021/10/15 08:54:43;;;;;;;2.13;1.92;;;13.20;99.90;;;;;;4982409;28;20211;-75
2021/10/15 08:57:10;;;;;;;2.85;2.30;;;13.10;99.90;;;;;;4981833;28;20186;-75
2021/10/15 08:59:38;;;;;;;2.40;2.00;;;13.20;99.90;;;;;;4980362;28;20249;-76
2021/10/15 09:02:15;;;;;;;4.25;2.42;;;13.10;99.90;;;;;;4981539;28;20258;-76
2021/10/15 09:04:49;;;;;;;4.32;2.70;;;13.10;99.90;;;;;;4982649;28;20187;-79
2021/10/15 09:07:16;;;;;;;3.33;2.40;;;13.00;99.90;;;;;;4983328;28;20262;-76
2021/10/15 09:09:43;;;;;;;5.22;2.78;;;12.80;99.90;;;;;;4980073;28;20191;-76
2021/10/15 09:12:11;;;;;;;5.70;2.90;;;12.70;99.90;;;;;;4980814;28;20192;-76
2021/10/15 09:14:38;;;;;;;3.67;2.50;;;12.70;99.90;;;;;;4982640;28;20213;-76
2021/10/15 09:17:17;;;;;;;3.88;2.35;;;12.70;99.90;;;;;;4982216;28;20206;-76
2021/10/15 09:19:48;;;;;;;5.03;2.70;;;12.70;99.90;;;;;;4981772;28;20266;-76
2021/10/15 09:22:14;;;;;;;5.82;2.30;;;12.70;99.90;;;;;;4981930;28;20188;-76
2021/10/15 09:24:44;;;;;;;3.92;2.30;;;12.80;99.90;;;;;;4982075;28;20203;-74
2021/10/15 09:27:12;;;;;;;5.47;2.60;;;12.70;99.90;;;;;;4979198;28;20214;-76
2021/10/15 09:30:11;;;;;;;3.17;2.60;;;12.60;99.90;;;;;;4981835;28;20561;-76
2021/10/15 09:32:39;;;;;;;4.65;2.55;;;12.40;99.90;;;;;;4977303;28;20451;-74
2021/10/15 09:35:07;;;;;;;5.25;2.67;;;12.30;99.90;;;;;;4980560;28;20219;-76
2021/10/15 09:37:35;;;;;;;3.42;2.50;;;12.20;99.90;;;;;;4981238;28;20187;-75
2021/10/15 09:40:22;;;;;;;3.35;2.65;;;12.00;99.90;;;;;;4981509;28;20180;-75
2021/10/15 09:42:52;;;;;;;3.17;2.50;;;11.90;99.90;;;;;;4981209;28;20211;-76
2021/10/15 09:45:28;;;;;;;4.32;2.75;;;12.00;99.90;;;;;;4983404;28;20221;-78
2021/10/15 09:47:59;;;;;;;4.47;2.67;;;11.80;99.90;;;;;;4984971;28;20323;-77
2021/10/15 09:50:30;;;;;;;3.55;2.75;;;11.70;99.90;;;;;;4989137;28;20191;-79
2021/10/15 09:53:00;;;;;;;4.93;3.35;;;11.70;99.90;;;;;;4991567;28;20284;-82
2021/10/15 09:55:38;;;;;;;3.42;2.88;;;11.70;99.90;;;;;;4987674;28;20433;-82
2021/10/15 09:58:11;;;;;;;3.78;2.97;;;11.60;99.90;;;;;;4986480;28;20291;-78
2021/10/15 10:00:37;;;;;;;4.00;3.30;;;11.50;99.90;;;;;;4986879;28;20254;-77
2021/10/15 10:03:03;;;;;;;5.05;3.50;;;11.30;99.90;;;;;;4986397;28;20199;-76
2021/10/15 10:05:30;;;;;;;3.70;3.30;;;11.30;99.90;;;;;;4984563;28;20212;-77
2021/10/15 10:07:57;;;;;;;5.18;3.30;;;11.30;99.90;;;;;;4984693;28;20188;-75
2021/10/15 10:10:25;;;;;;;3.30;2.63;;;11.20;99.90;;;;;;4986557;28;20276;-75
2021/10/15 10:12:53;;;;;;;3.60;2.58;;;11.10;99.90;;;;;;4986128;28;20176;-77
2021/10/15 10:15:22;;;;;;;2.22;1.73;;;11.00;99.90;;;;;;4984054;28;20780;-77
2021/10/15 10:18:12;;;;;;;2.00;1.70;;;11.00;99.90;;;;;;4985062;28;20181;-77
2021/10/15 10:20:43;;;;;;;1.50;1.40;;;11.00;99.90;;;;;;4986384;28;20204;-77
2021/10/15 10:23:29;;;;;;;1.70;1.50;;;11.10;99.90;;;;;;4985555;28;20173;-77
2021/10/15 10:26:07;;;;;;;2.00;1.88;;;11.20;99.90;;;;;;4987302;28;20203;-77
2021/10/15 10:28:34;;;;;;;2.30;1.80;;;11.20;99.90;;;;;;4987154;28;20199;-77
2021/10/15 10:31:06;;;;;;;1.92;1.50;;;11.40;99.90;;;;;;4987734;28;20226;-74
2021/10/15 10:33:59;;;;;;;4.15;1.98;;;11.40;99.90;;;;;;4986767;28;20180;-77
2021/10/15 10:36:27;;;;;;;1.77;1.60;;;11.40;99.90;;;;;;4986719;28;20212;-77
2021/10/15 10:38:53;;;;;;;2.90;1.20;;;11.50;99.90;;;;;;4986545;28;20259;-76
2021/10/15 10:41:20;;;;;;;1.42;1.33;;;11.50;99.90;;;;;;4986745;28;20263;-76
2021/10/15 10:43:46;;;;;;;2.33;1.30;;;11.60;99.90;;;;;;4986254;28;20188;-77
2021/10/15 10:46:16;;;;;;;1.40;1.25;;;11.70;99.90;;;;;;4987093;28;20257;-74
2021/10/15 10:48:50;;;;;;;1.17;1.05;;;11.60;99.90;;;;;;4986635;28;20184;-77
2021/10/15 10:51:20;;;;;;;1.30;1.20;;;11.70;99.90;;;;;;4986560;28;20188;-76
2021/10/15 10:54:07;;;;;;;1.27;1.17;;;11.70;99.90;;;;;;4984737;28;20665;-77
2021/10/15 10:56:38;;;;;;;1.20;1.10;;;11.80;99.90;;;;;;4985619;28;20710;-77
2021/10/15 10:59:22;;;;;;;1.20;1.00;;;11.90;99.90;;;;;;4986761;28;20527;-74
2021/10/15 11:02:11;;;;;;;1.10;0.90;;;11.90;99.90;;;;;;4988133;28;20610;-74
2021/10/15 11:04:42;;;;;;;1.17;1.02;;;12.00;99.90;;;;;;4986483;28;20184;-77
2021/10/15 11:07:21;;;;;;;1.92;0.80;;;12.00;99.90;;;;;;4985771;28;20188;-75
2021/10/15 11:10:04;;;;;;;0.80;0.75;;;11.90;99.90;;;;;;4986075;28;20188;-75
2021/10/15 11:12:29;;;;;;;2.25;0.90;;;11.90;99.90;;;;;;4984477;28;20191;-77
2021/10/15 11:14:58;;;;;;;1.10;0.65;;;11.90;99.90;;;;;;4985210;28;20203;-78
2021/10/15 11:17:32;;;;;;;1.05;0.70;;;11.90;99.90;;;;;;4986845;28;20555;-77
2021/10/15 11:20:12;;;;;;;1.20;0.60;;;11.90;99.90;;;;;;4986011;28;21076;-75
2021/10/15 11:22:46;;;;;;;0.77;0.65;;;11.80;99.90;;;;;;4999852;28;20466;-77
2021/10/15 11:25:12;;;;;;;2.10;0.80;;;11.70;99.90;;;;;;4985717;28;20569;-77
2021/10/15 11:27:38;;;;;;;1.40;0.60;;;11.60;99.90;;;;;;4984364;28;20211;-75
2021/10/15 11:30:08;;;;;;;0.63;0.57;;;11.60;99.90;;;;;;4986491;28;20184;-74
2021/10/15 11:32:43;;;;;;;2.08;0.60;;;11.60;99.90;;;;;;4983853;28;20200;-75
2021/10/15 11:35:12;;;;;;;0.65;0.65;;;11.50;99.90;;;;;;4984388;28;20269;-77
2021/10/15 11:37:53;;;;;;;1.40;0.82;;;11.40;99.90;;;;;;4985097;28;20180;-73
2021/10/15 11:40:22;;;;;;;1.23;0.90;;;11.30;99.90;;;;;;4984987;28;20190;-74
2021/10/15 11:42:48;;;;;;;1.35;1.05;;;11.10;99.90;;;;;;4984555;28;20650;-76
2021/10/15 11:45:21;;;;;;;1.92;1.02;;;11.10;99.90;;;;;;4985574;28;20219;-77
2021/10/15 11:48:00;;;;;;;1.83;0.65;;;11.10;99.90;;;;;;4984476;28;20188;-73
2021/10/15 11:50:38;;;;;;;0.83;0.70;;;11.10;99.90;;;;;;4985358;28;20191;-75
2021/10/15 11:53:05;;;;;;;0.93;0.60;;;11.10;99.90;;;;;;4985112;28;20394;-76
2021/10/15 11:55:36;;;;;;;0.82;0.60;;;11.10;99.90;;;;;;4985006;28;20243;-77
2021/10/15 11:58:25;;;;;;;1.20;0.55;;;11.10;99.90;;;;;;4980921;28;20552;-77
2021/10/15 12:00:58;;;;;;;2.05;0.70;;;11.20;99.90;;;;;;4983393;28;20208;-74
2021/10/15 12:03:45;;;;;;;1.02;0.68;;;11.20;99.90;;;;;;4986809;28;20612;-77
2021/10/15 12:06:15;;;;;;;1.35;0.70;;;11.20;99.90;;;;;;4985256;28;20758;-78
2021/10/15 12:08:42;;;;;;;0.80;0.80;;;11.30;99.90;;;;;;4983412;28;20629;-78
2021/10/15 12:11:23;;;;;;;1.33;1.10;;;11.20;99.90;;;;;;4981497;28;20234;-76
2021/10/15 12:13:49;;;;;;;0.95;0.85;;;11.20;99.90;;;;;;4982831;28;20238;-76
2021/10/15 12:16:41;;;;;;;0.70;0.70;;;11.40;99.90;;;;;;4981592;28;20215;-76
2021/10/15 12:19:09;;;;;;;1.08;0.70;;;11.60;99.90;;;;;;4983167;28;20630;-76
2021/10/15 12:21:36;;;;;;;0.80;0.80;;;11.50;99.90;;;;;;4981595;28;20242;-75
2021/10/15 12:24:03;;;;;;;0.90;0.70;;;11.60;99.90;;;;;;4983391;28;20626;-75
2021/10/15 12:26:29;;;;;;;0.93;0.90;;;11.60;99.90;;;;;;4983264;28;21199;-73
2021/10/15 12:28:55;;;;;;;1.75;1.20;;;11.70;99.90;;;;;;4982881;28;20860;-76
2021/10/15 12:31:34;;;;;;;2.10;1.52;;;11.60;99.90;;;;;;4983120;28;20192;-74
2021/10/15 12:34:04;;;;;;;2.20;1.27;;;11.60;99.90;;;;;;4983563;28;20184;-77
2021/10/15 12:36:31;;;;;;;2.13;1.10;;;11.60;99.90;;;;;;4995810;28;20917;-77
2021/10/15 12:39:25;;;;;;;1.98;1.50;;;11.60;99.90;;;;;;4986890;28;20184;-79
2021/10/15 12:41:53;;;;;;;2.75;1.30;;;11.60;99.90;;;;;;4987890;28;20181;-77
2021/10/15 12:44:39;;;;;;;1.75;1.10;;;11.80;99.90;;;;;;4985401;28;20199;-78
2021/10/15 12:47:08;;;;;;;2.95;1.80;;;11.70;99.90;;;;;;4983973;28;20219;-79
2021/10/15 12:49:56;;;;;;;16.42;3.38;;;11.70;99.90;;;;;;4986795;28;20207;-79
2021/10/15 12:52:41;;;;;;;2.22;1.00;;;11.70;99.90;;;;;;4985876;28;20184;-78
2021/10/15 12:55:27;;;;;;;2.63;0.95;;;11.80;99.90;;;;;;4985131;28;20247;-79
2021/10/15 12:58:06;;;;;;;1.67;0.70;;;11.80;99.90;;;;;;5001903;28;20244;-79
2021/10/15 13:00:55;;;;;;;1.02;0.80;;;11.80;99.90;;;;;;4989061;28;20527;-80
2021/10/15 13:03:22;;;;;;;1.05;0.80;;;11.80;99.90;;;;;;4988120;28;20279;-80
2021/10/15 13:05:50;;;;;;;0.75;0.75;;;12.00;99.90;;;;;;5004217;28;20227;-79